createdAt,value
2023-01-17T00:02:15.319Z,0.90
2023-01-17T00:05:00.196Z,1.73
2023-01-17T00:07:44.979Z,1.33
2023-01-17T00:10:14.969Z,1.10
2023-01-17T00:12:46.241Z,1.67
2023-01-17T00:15:12.621Z,1.20
2023-01-17T00:17:38.996Z,1.30
2023-01-17T00:20:24.053Z,1.40
2023-01-17T00:23:08.855Z,1.30
2023-01-17T00:25:56.088Z,2.20
2023-01-17T00:28:22.778Z,1.58
2023-01-17T00:30:49.122Z,1.60
2023-01-17T00:33:15.404Z,1.20
2023-01-17T00:35:41.760Z,0.90
2023-01-17T00:38:12.275Z,1.10
2023-01-17T00:40:39.970Z,2.03
2023-01-17T00:43:25.411Z,1.25
2023-01-17T00:46:10.516Z,2.28
2023-01-17T00:48:56.256Z,0.90
2023-01-17T00:51:41.763Z,1.10
2023-01-17T00:54:26.745Z,0.95
2023-01-17T00:57:12.071Z,0.60
2023-01-17T00:59:57.133Z,0.80
2023-01-17T01:02:42.663Z,0.95
2023-01-17T01:05:28.220Z,0.60
2023-01-17T01:08:13.073Z,0.77
2023-01-17T01:10:57.911Z,0.68
2023-01-17T01:13:43.562Z,1.10
2023-01-17T01:16:28.974Z,1.00
2023-01-17T01:19:13.732Z,1.20
2023-01-17T01:21:58.710Z,1.08
2023-01-17T01:24:44.137Z,0.82
2023-01-17T01:27:29.093Z,1.10
2023-01-17T01:30:14.135Z,1.08
2023-01-17T01:32:59.214Z,0.88
2023-01-17T01:35:25.579Z,1.20
2023-01-17T01:37:53.047Z,1.13
2023-01-17T01:40:19.638Z,1.25
2023-01-17T01:43:05.956Z,1.05
2023-01-17T01:45:32.556Z,1.27
2023-01-17T01:48:03.865Z,1.13
2023-01-17T01:50:31.190Z,1.52
2023-01-17T01:52:59.608Z,0.88
2023-01-17T01:55:28.800Z,1.05
2023-01-17T01:57:57.427Z,1.10
2023-01-17T02:00:26.456Z,1.33
2023-01-17T02:02:55.491Z,1.00
2023-01-17T02:05:23.471Z,0.75
2023-01-17T02:08:02.218Z,1.20
2023-01-17T02:10:31.015Z,1.25
2023-01-17T02:12:57.320Z,1.52
2023-01-17T02:15:29.715Z,1.05
2023-01-17T02:18:01.908Z,0.90
2023-01-17T02:20:31.174Z,1.10
2023-01-17T02:23:03.392Z,1.20
2023-01-17T02:25:32.984Z,0.90
2023-01-17T02:28:18.015Z,0.60
2023-01-17T02:30:54.298Z,1.20
2023-01-17T02:33:39.330Z,1.27
2023-01-17T02:36:26.201Z,1.58
2023-01-17T02:38:57.715Z,1.95
2023-01-17T02:41:29.866Z,2.30
2023-01-17T02:43:56.217Z,1.25
2023-01-17T02:46:22.611Z,1.20
2023-01-17T02:48:49.249Z,1.15
2023-01-17T02:51:15.560Z,1.42
2023-01-17T02:53:47.714Z,1.27
2023-01-17T02:56:22.095Z,2.55
2023-01-17T02:59:04.374Z,1.50
2023-01-17T03:01:36.805Z,1.60
2023-01-17T03:04:05.940Z,1.20
2023-01-17T03:06:35.174Z,1.50
2023-01-17T03:09:02.278Z,1.88
2023-01-17T03:11:28.665Z,1.50
2023-01-17T03:13:56.724Z,1.40
2023-01-17T03:16:23.847Z,1.58
2023-01-17T03:18:50.307Z,1.30
2023-01-17T03:21:16.677Z,1.45
2023-01-17T03:23:42.999Z,1.38
2023-01-17T03:26:09.340Z,1.20
2023-01-17T03:28:35.652Z,1.52
2023-01-17T03:31:02.173Z,1.48
2023-01-17T03:33:28.674Z,1.73
2023-01-17T03:35:57.958Z,1.20
2023-01-17T03:38:25.301Z,1.27
2023-01-17T03:40:51.742Z,0.90
2023-01-17T03:43:18.090Z,1.20
2023-01-17T03:45:44.588Z,1.58
2023-01-17T03:48:11.674Z,1.00
2023-01-17T03:50:38.039Z,1.33
2023-01-17T03:53:04.421Z,1.10
2023-01-17T03:55:30.716Z,1.20
2023-01-17T03:57:57.062Z,1.17
2023-01-17T04:00:23.417Z,1.13
2023-01-17T04:02:49.826Z,1.23
2023-01-17T04:05:16.954Z,1.40
2023-01-17T04:07:43.306Z,1.13
2023-01-17T04:10:10.484Z,1.13
2023-01-17T04:12:36.850Z,1.27
2023-01-17T04:15:03.477Z,1.58
2023-01-17T04:17:29.867Z,1.13
2023-01-17T04:19:56.191Z,1.63
2023-01-17T04:22:24.707Z,1.40
2023-01-17T04:24:51.031Z,1.60
2023-01-17T04:27:17.746Z,2.03
2023-01-17T04:29:46.593Z,1.65
2023-01-17T04:32:13.280Z,1.70
2023-01-17T04:34:39.595Z,1.80
2023-01-17T04:37:05.963Z,2.33
2023-01-17T04:39:32.311Z,2.00
2023-01-17T04:41:58.692Z,2.85
2023-01-17T04:44:25.103Z,2.03
2023-01-17T04:46:51.407Z,1.40
2023-01-17T04:49:17.729Z,2.38
2023-01-17T04:51:44.340Z,1.98
2023-01-17T04:54:10.677Z,1.55
2023-01-17T04:56:37.360Z,2.00
2023-01-17T04:59:03.729Z,1.90
2023-01-17T05:01:30.203Z,1.23
2023-01-17T05:03:56.575Z,1.70
2023-01-17T05:06:23.001Z,2.38
2023-01-17T05:08:49.313Z,1.95
2023-01-17T05:11:15.685Z,1.70
2023-01-17T05:13:42.006Z,1.45
2023-01-17T05:16:08.424Z,1.80
2023-01-17T05:18:34.820Z,1.48
2023-01-17T05:21:04.029Z,1.52
2023-01-17T05:23:30.365Z,1.52
2023-01-17T05:25:56.710Z,1.40
2023-01-17T05:28:24.156Z,2.40
2023-01-17T05:30:50.521Z,1.50
2023-01-17T05:33:16.927Z,3.25
2023-01-17T05:35:43.309Z,1.58
2023-01-17T05:38:09.644Z,1.45
2023-01-17T05:40:35.978Z,1.50
2023-01-17T05:43:03.720Z,1.67
2023-01-17T05:45:31.257Z,1.33
2023-01-17T05:47:58.243Z,1.60
2023-01-17T05:50:29.126Z,1.70
2023-01-17T05:52:59.757Z,1.70
2023-01-17T05:55:27.042Z,1.38
2023-01-17T05:57:53.683Z,1.85
2023-01-17T06:00:20.223Z,2.20
2023-01-17T06:02:47.013Z,1.70
2023-01-17T06:05:14.086Z,1.75
2023-01-17T06:07:42.689Z,1.50
2023-01-17T06:10:10.736Z,2.60
2023-01-17T06:12:37.356Z,2.67
2023-01-17T06:15:03.933Z,2.15
2023-01-17T06:17:30.285Z,2.05
2023-01-17T06:19:56.612Z,2.30
2023-01-17T06:22:22.973Z,1.88
2023-01-17T06:24:49.288Z,2.05
2023-01-17T06:27:15.623Z,2.15
2023-01-17T06:29:41.961Z,1.50
2023-01-17T06:32:08.259Z,1.52
2023-01-17T06:34:34.610Z,1.70
2023-01-17T06:37:00.904Z,2.47
2023-01-17T06:39:27.259Z,2.78
2023-01-17T06:41:53.756Z,2.92
2023-01-17T06:44:20.133Z,2.53
2023-01-17T06:46:47.989Z,2.60
2023-01-17T06:49:14.590Z,2.80
2023-01-17T06:51:43.491Z,3.13
2023-01-17T06:54:09.954Z,4.22
2023-01-17T06:56:36.758Z,3.83
2023-01-17T06:59:03.673Z,4.30
2023-01-17T07:01:30.979Z,3.42
2023-01-17T07:03:57.401Z,4.53
2023-01-17T07:06:28.657Z,4.88
2023-01-17T07:08:55.933Z,5.25
2023-01-17T07:11:22.607Z,4.90
2023-01-17T07:13:48.997Z,6.40
2023-01-17T07:16:15.446Z,5.82
2023-01-17T07:18:41.915Z,5.43
2023-01-17T07:21:15.054Z,5.65
2023-01-17T07:23:41.412Z,6.53
2023-01-17T07:26:07.937Z,6.65
2023-01-17T07:28:34.304Z,6.38
2023-01-17T07:31:04.420Z,6.55
2023-01-17T07:33:30.735Z,6.80
2023-01-17T07:35:57.083Z,6.95
2023-01-17T07:38:23.418Z,6.10
2023-01-17T07:40:49.803Z,6.55
2023-01-17T07:43:16.646Z,6.72
2023-01-17T07:45:44.262Z,6.13
2023-01-17T07:48:11.338Z,6.50
2023-01-17T07:50:38.068Z,6.15
2023-01-17T07:53:04.865Z,6.03
2023-01-17T07:55:31.467Z,6.65
2023-01-17T07:57:57.841Z,5.82
2023-01-17T08:00:27.471Z,5.55
2023-01-17T08:02:57.487Z,6.53
2023-01-17T08:05:24.052Z,6.07
2023-01-17T08:07:50.483Z,5.25
2023-01-17T08:10:18.074Z,5.57
2023-01-17T08:12:47.760Z,4.80
2023-01-17T08:15:14.874Z,4.60
2023-01-17T08:17:45.243Z,5.53
2023-01-17T08:20:11.681Z,4.63
2023-01-17T08:22:38.060Z,4.38
2023-01-17T08:25:04.573Z,4.45
2023-01-17T08:27:30.970Z,4.68
2023-01-17T08:29:57.300Z,4.70
2023-01-17T08:32:23.740Z,4.70
2023-01-17T08:34:50.093Z,4.78
2023-01-17T08:37:16.395Z,5.00
2023-01-17T08:39:42.696Z,4.90
2023-01-17T08:42:09.053Z,4.20
2023-01-17T08:44:35.418Z,3.60
2023-01-17T08:47:01.798Z,3.70
2023-01-17T08:49:30.731Z,3.22
2023-01-17T08:51:57.399Z,3.42
2023-01-17T08:54:23.761Z,3.20
2023-01-17T08:56:50.456Z,3.88
2023-01-17T08:59:16.787Z,3.60
2023-01-17T09:01:45.888Z,3.47
2023-01-17T09:04:12.796Z,3.45
2023-01-17T09:06:40.147Z,3.13
2023-01-17T09:09:07.267Z,2.92
2023-01-17T09:11:33.972Z,2.65
2023-01-17T09:14:01.878Z,2.70
2023-01-17T09:16:28.789Z,3.10
2023-01-17T09:18:55.843Z,2.90
2023-01-17T09:21:22.399Z,3.35
2023-01-17T09:23:48.819Z,2.40
2023-01-17T09:26:20.221Z,2.97
2023-01-17T09:28:46.592Z,3.10
2023-01-17T09:31:13.245Z,2.80
2023-01-17T09:33:42.546Z,2.35
2023-01-17T09:36:09.510Z,2.40
2023-01-17T09:38:36.579Z,2.25
2023-01-17T09:41:03.379Z,2.20
2023-01-17T09:43:45.392Z,2.58
2023-01-17T09:46:22.453Z,3.00
2023-01-17T09:48:57.281Z,3.58
2023-01-17T09:51:26.547Z,2.70
2023-01-17T09:53:53.610Z,2.83
2023-01-17T09:56:23.235Z,2.90
2023-01-17T09:59:02.735Z,3.28
2023-01-17T10:01:47.764Z,2.20
2023-01-17T10:04:31.460Z,2.50
2023-01-17T10:06:57.787Z,2.40
2023-01-17T10:09:30.202Z,2.40
2023-01-17T10:12:05.675Z,2.83
2023-01-17T10:14:41.405Z,2.80
2023-01-17T10:17:26.492Z,3.03
2023-01-17T10:19:52.910Z,2.65
2023-01-17T10:22:19.194Z,2.25
2023-01-17T10:24:51.832Z,2.65
2023-01-17T10:27:23.899Z,2.85
2023-01-17T10:29:50.732Z,3.53
2023-01-17T10:32:17.128Z,3.22
2023-01-17T10:34:47.778Z,2.90
2023-01-17T10:37:21.086Z,2.33
2023-01-17T10:39:48.333Z,2.70
2023-01-17T10:42:26.737Z,3.53
2023-01-17T10:44:59.246Z,2.55
2023-01-17T10:47:27.763Z,2.88
2023-01-17T10:49:56.521Z,2.83
2023-01-17T10:52:58.900Z,3.10
2023-01-17T10:55:31.004Z,2.60
2023-01-17T10:57:58.190Z,3.83
2023-01-17T11:00:43.764Z,2.83
2023-01-17T11:03:13.919Z,3.95
2023-01-17T11:05:41.090Z,4.15
2023-01-17T11:08:08.592Z,3.92
2023-01-17T11:10:37.905Z,3.45
2023-01-17T11:13:05.710Z,4.03
2023-01-17T11:15:34.717Z,3.42
2023-01-17T11:18:02.679Z,4.70
2023-01-17T11:20:39.458Z,4.70
2023-01-17T11:23:11.364Z,3.80
2023-01-17T11:25:37.849Z,5.20
2023-01-17T11:28:06.639Z,4.38
2023-01-17T11:30:33.109Z,4.35
2023-01-17T11:33:00.854Z,4.68
2023-01-17T11:35:28.877Z,4.88
2023-01-17T11:38:14.013Z,5.85
2023-01-17T11:40:40.295Z,6.13
2023-01-17T11:43:12.733Z,5.40
2023-01-17T11:45:39.687Z,5.10
2023-01-17T11:48:08.801Z,5.40
2023-01-17T11:50:37.452Z,5.05
2023-01-17T11:53:05.231Z,4.97
2023-01-17T11:55:31.615Z,5.05
2023-01-17T11:57:58.736Z,6.32
2023-01-17T12:00:31.356Z,5.10
2023-01-17T12:03:13.886Z,4.60
2023-01-17T12:05:51.211Z,5.72
2023-01-17T12:08:25.300Z,4.85
2023-01-17T12:10:52.201Z,4.93
2023-01-17T12:13:44.208Z,4.75
2023-01-17T12:16:32.768Z,4.60
2023-01-17T12:18:59.120Z,4.82
2023-01-17T12:21:34.823Z,4.82
2023-01-17T12:24:18.891Z,4.40
2023-01-17T12:26:50.144Z,3.80
2023-01-17T12:29:35.019Z,3.50
2023-01-17T12:32:01.344Z,3.38
2023-01-17T12:34:30.036Z,3.45
2023-01-17T12:36:58.476Z,3.72
2023-01-17T12:39:29.007Z,2.88
2023-01-17T12:42:13.768Z,2.55
2023-01-17T12:44:57.754Z,2.75
2023-01-17T12:47:24.415Z,2.45
2023-01-17T12:49:53.715Z,2.35
2023-01-17T12:52:23.109Z,1.92
2023-01-17T12:54:51.560Z,2.80
2023-01-17T12:57:20.745Z,2.15
2023-01-17T12:59:47.915Z,2.45
2023-01-17T13:02:33.157Z,3.28
2023-01-17T13:05:18.105Z,2.50
2023-01-17T13:07:44.757Z,2.78
2023-01-17T13:10:30.285Z,2.13
2023-01-17T13:12:59.703Z,2.10
2023-01-17T13:15:28.411Z,2.10
2023-01-17T13:18:09.534Z,2.05
2023-01-17T13:20:42.192Z,2.33
2023-01-17T13:23:12.481Z,2.13
2023-01-17T13:25:46.014Z,2.00
2023-01-17T13:28:16.441Z,1.90
2023-01-17T13:30:54.784Z,1.45
2023-01-17T13:33:21.083Z,1.58
2023-01-17T13:35:47.497Z,1.20
2023-01-17T13:38:16.813Z,1.40
2023-01-17T13:40:49.501Z,1.20
2023-01-17T13:43:21.311Z,1.13
2023-01-17T13:45:52.151Z,1.33
2023-01-17T13:48:18.648Z,1.13
2023-01-17T13:50:47.031Z,1.48
2023-01-17T13:53:45.470Z,1.00
2023-01-17T13:56:27.506Z,1.45
2023-01-17T13:58:55.226Z,1.50
2023-01-17T14:01:21.564Z,0.90
2023-01-17T14:03:53.685Z,1.38
2023-01-17T14:06:36.475Z,1.65
2023-01-17T14:09:08.654Z,1.00
2023-01-17T14:11:36.000Z,1.40
2023-01-17T14:14:20.925Z,1.20
2023-01-17T14:16:47.358Z,1.08
2023-01-17T14:19:24.974Z,1.40
2023-01-17T14:22:11.223Z,1.90
2023-01-17T14:24:55.288Z,1.52
2023-01-17T14:27:23.576Z,1.38
2023-01-17T14:29:58.861Z,1.95
2023-01-17T14:32:36.269Z,1.45
2023-01-17T14:35:03.651Z,2.05
2023-01-17T14:37:32.816Z,1.60
2023-01-17T14:40:00.202Z,1.73
2023-01-17T14:42:28.280Z,1.75
2023-01-17T14:45:06.211Z,1.48
2023-01-17T14:47:34.987Z,1.58
2023-01-17T14:50:10.457Z,1.65
2023-01-17T14:52:36.863Z,1.73
2023-01-17T14:55:14.516Z,1.85
2023-01-17T14:57:40.849Z,1.80
2023-01-17T15:00:10.948Z,1.65
2023-01-17T15:02:42.336Z,2.08
2023-01-17T15:05:11.372Z,2.05
2023-01-17T15:07:37.896Z,1.63
2023-01-17T15:10:04.522Z,2.38
2023-01-17T15:12:30.907Z,2.22
2023-01-17T15:14:58.657Z,2.58
2023-01-17T15:17:25.093Z,2.55
2023-01-17T15:19:53.836Z,1.92
2023-01-17T15:22:20.312Z,2.47
2023-01-17T15:24:47.732Z,2.40
2023-01-17T15:27:15.115Z,2.10
2023-01-17T15:29:41.675Z,2.25
2023-01-17T15:32:16.905Z,2.08
2023-01-17T15:34:44.459Z,2.60
2023-01-17T15:37:32.667Z,2.17
2023-01-17T15:40:04.175Z,2.20
2023-01-17T15:42:34.082Z,2.20
2023-01-17T15:45:03.065Z,2.55
2023-01-17T15:47:31.395Z,3.10
2023-01-17T15:49:58.447Z,2.90
2023-01-17T15:52:24.923Z,2.92
2023-01-17T15:54:58.656Z,3.10
2023-01-17T15:57:29.279Z,2.97
2023-01-17T16:00:08.514Z,2.90
2023-01-17T16:02:35.882Z,3.65
2023-01-17T16:05:21.188Z,3.83
2023-01-17T16:07:48.358Z,3.40
2023-01-17T16:10:16.014Z,3.97
2023-01-17T16:12:42.745Z,3.53
2023-01-17T16:15:12.732Z,3.70
2023-01-17T16:17:45.387Z,3.10
2023-01-17T16:20:15.877Z,3.40
2023-01-17T16:22:43.744Z,3.40
2023-01-17T16:25:32.349Z,3.67
2023-01-17T16:27:59.042Z,3.40
2023-01-17T16:30:26.865Z,3.42
2023-01-17T16:32:53.467Z,4.75
2023-01-17T16:35:30.759Z,4.47
2023-01-17T16:37:57.035Z,4.03
2023-01-17T16:40:24.786Z,4.13
2023-01-17T16:42:51.102Z,4.18
2023-01-17T16:45:18.055Z,4.65
2023-01-17T16:47:45.166Z,4.25
2023-01-17T16:50:12.611Z,4.43
2023-01-17T16:52:39.615Z,4.03
2023-01-17T16:55:07.915Z,4.60
2023-01-17T16:57:34.220Z,4.43
2023-01-17T17:00:00.534Z,4.82
2023-01-17T17:02:27.013Z,4.22
2023-01-17T17:04:53.454Z,4.20
2023-01-17T17:07:19.763Z,4.85
2023-01-17T17:09:46.129Z,5.07
2023-01-17T17:12:12.543Z,4.32
2023-01-17T17:14:39.372Z,4.45
2023-01-17T17:17:06.543Z,4.80
2023-01-17T17:19:33.799Z,5.30
2023-01-17T17:22:05.951Z,5.70
2023-01-17T17:24:32.477Z,5.38
2023-01-17T17:26:58.775Z,4.80
2023-01-17T17:29:25.249Z,5.25
2023-01-17T17:31:52.028Z,7.20
2023-01-17T17:34:18.350Z,5.50
2023-01-17T17:36:44.819Z,5.82
2023-01-17T17:39:12.437Z,6.38
2023-01-17T17:41:41.191Z,5.35
2023-01-17T17:44:07.647Z,4.78
2023-01-17T17:46:34.823Z,6.00
2023-01-17T17:49:01.416Z,4.43
2023-01-17T17:51:32.071Z,5.72
2023-01-17T17:54:00.854Z,5.78
2023-01-17T17:56:28.210Z,4.40
2023-01-17T17:58:54.930Z,3.80
2023-01-17T18:01:24.240Z,4.40
2023-01-17T18:03:51.207Z,4.30
2023-01-17T18:06:17.771Z,7.40
2023-01-17T18:08:44.187Z,8.18
2023-01-17T18:11:14.739Z,6.47
2023-01-17T18:13:42.199Z,5.38
2023-01-17T18:16:12.632Z,4.85
2023-01-17T18:18:40.027Z,5.05
2023-01-17T18:21:06.500Z,5.00
2023-01-17T18:23:32.824Z,6.55
2023-01-17T18:25:59.116Z,6.00
2023-01-17T18:28:25.465Z,5.00
2023-01-17T18:30:51.768Z,5.25
2023-01-17T18:33:18.135Z,6.82
2023-01-17T18:35:52.913Z,10.35
2023-01-17T18:38:19.236Z,9.18
2023-01-17T18:40:45.601Z,12.93
2023-01-17T18:43:11.946Z,9.70
2023-01-17T18:45:38.317Z,7.90
2023-01-17T18:48:04.861Z,7.80
2023-01-17T18:50:31.262Z,4.72
2023-01-17T18:52:57.899Z,4.80
2023-01-17T18:55:24.257Z,4.68
2023-01-17T18:57:50.593Z,5.03
2023-01-17T19:00:17.944Z,4.85
2023-01-17T19:02:47.539Z,4.93
2023-01-17T19:05:14.705Z,5.07
2023-01-17T19:07:41.086Z,5.03
2023-01-17T19:10:10.388Z,5.28
2023-01-17T19:12:37.633Z,7.65
2023-01-17T19:15:04.171Z,6.93
2023-01-17T19:17:30.500Z,9.60
2023-01-17T19:19:57.225Z,9.35
2023-01-17T19:22:23.809Z,9.32
2023-01-17T19:24:50.211Z,9.23
2023-01-17T19:27:18.585Z,9.32
2023-01-17T19:29:45.008Z,10.93
2023-01-17T19:32:11.567Z,8.35
2023-01-17T19:34:37.924Z,7.70
2023-01-17T19:37:05.998Z,7.07
2023-01-17T19:39:33.205Z,6.30
2023-01-17T19:41:59.802Z,4.97
2023-01-17T19:44:26.212Z,5.30
2023-01-17T19:46:52.754Z,5.07
2023-01-17T19:49:23.952Z,5.28
2023-01-17T19:51:51.133Z,7.32
2023-01-17T19:54:17.666Z,7.13
2023-01-17T19:56:44.049Z,5.30
2023-01-17T19:59:13.692Z,5.85
2023-01-17T20:01:40.179Z,5.47
2023-01-17T20:04:06.607Z,5.40
2023-01-17T20:06:34.592Z,6.38
2023-01-17T20:09:01.084Z,5.80
2023-01-17T20:11:28.280Z,5.95
2023-01-17T20:13:55.998Z,5.63
2023-01-17T20:16:23.021Z,6.68
2023-01-17T20:18:49.767Z,5.53
2023-01-17T20:21:19.940Z,5.95
2023-01-17T20:23:47.038Z,6.05
2023-01-17T20:26:17.574Z,7.15
2023-01-17T20:28:44.991Z,5.18
2023-01-17T20:31:12.812Z,5.88
2023-01-17T20:33:39.688Z,5.57
2023-01-17T20:36:10.624Z,6.65
2023-01-17T20:38:43.840Z,6.65
2023-01-17T20:43:36.606Z,6.30
2023-01-17T20:46:04.522Z,6.28
2023-01-17T20:48:30.885Z,41.05
2023-01-17T20:51:05.654Z,12.85
2023-01-17T20:53:33.193Z,12.55
2023-01-17T20:55:59.522Z,7.70
2023-01-17T20:58:26.087Z,7.65
2023-01-17T21:00:54.185Z,7.55
2023-01-17T21:03:20.547Z,7.72
2023-01-17T21:05:46.848Z,7.38
2023-01-17T21:08:17.145Z,7.85
2023-01-17T21:10:45.728Z,7.22
2023-01-17T21:13:12.135Z,7.88
2023-01-17T21:15:42.197Z,7.50
2023-01-17T21:18:08.672Z,7.93
2023-01-17T21:20:36.290Z,8.40
2023-01-17T21:23:02.667Z,6.65
2023-01-17T21:25:29.138Z,7.03
2023-01-17T21:27:55.882Z,7.10
2023-01-17T21:30:22.717Z,7.07
2023-01-17T21:32:49.138Z,7.97
2023-01-17T21:35:15.707Z,7.90
2023-01-17T21:37:42.203Z,8.00
2023-01-17T21:40:09.120Z,8.23
2023-01-17T21:42:35.498Z,7.30
2023-01-17T21:45:03.195Z,7.47
2023-01-17T21:47:29.545Z,7.30
2023-01-17T21:49:57.103Z,6.60
2023-01-17T21:52:23.414Z,6.10
2023-01-17T21:55:08.448Z,6.72
2023-01-17T21:57:55.457Z,6.95
2023-01-17T22:00:22.498Z,7.25
2023-01-17T22:02:48.870Z,6.88
2023-01-17T22:05:16.639Z,6.65
2023-01-17T22:08:01.654Z,6.50
2023-01-17T22:10:28.304Z,6.38
2023-01-17T22:12:54.663Z,7.20
2023-01-17T22:15:21.033Z,8.43
2023-01-17T22:17:47.542Z,6.88
2023-01-17T22:20:13.905Z,7.43
2023-01-17T22:22:40.225Z,6.88
2023-01-17T22:25:06.610Z,8.07
2023-01-17T22:27:32.972Z,6.93
2023-01-17T22:29:59.397Z,7.20
2023-01-17T22:32:25.696Z,7.35
2023-01-17T22:34:52.002Z,8.73
2023-01-17T22:37:18.392Z,7.70
2023-01-17T22:39:44.767Z,7.38
2023-01-17T22:42:13.270Z,8.05
2023-01-17T22:44:39.592Z,8.68
2023-01-17T22:47:06.019Z,7.93
2023-01-17T22:49:32.330Z,9.13
2023-01-17T22:51:58.676Z,7.93
2023-01-17T22:54:25.091Z,7.72
2023-01-17T22:56:51.444Z,8.27
2023-01-17T22:59:18.140Z,7.75
2023-01-17T23:01:44.573Z,7.95
2023-01-17T23:04:13.037Z,7.30
2023-01-17T23:06:40.353Z,7.00
2023-01-17T23:09:10.937Z,7.45
2023-01-17T23:11:44.956Z,8.02
2023-01-17T23:14:11.324Z,6.97
2023-01-17T23:16:56.793Z,7.47
2023-01-17T23:19:23.565Z,7.78
2023-01-17T23:22:20.632Z,6.85
2023-01-17T23:24:46.906Z,8.13
2023-01-17T23:27:33.800Z,8.13
2023-01-17T23:30:00.206Z,7.78
2023-01-17T23:32:26.561Z,8.25
2023-01-17T23:34:52.919Z,7.72
2023-01-17T23:37:19.276Z,7.30
2023-01-17T23:39:45.699Z,7.53
2023-01-17T23:42:30.491Z,7.78
2023-01-17T23:44:56.803Z,7.00
2023-01-17T23:47:23.105Z,6.50
2023-01-17T23:49:49.525Z,6.78
2023-01-17T23:52:16.163Z,6.63
2023-01-17T23:54:42.526Z,7.10
2023-01-17T23:57:08.871Z,6.95
2023-01-17T23:59:35.186Z,7.28
